Time;durP1;ratioP1;P1;durP2;ratioP2;P2;SDS_P1;SDS_P2;PMS_P1;PMS_P2;Temp;Humidity;BMP_temperature;BMP_pressure;BME280_temperature;BME280_humidity;BME280_pressure;Samples;Min_cycle;Max_cycle;Signal;HPM_P1;HPM_P2
2022/01/26 00:07:30;;;;;;;107.30;45.40;;;5.50;99.90;;;;;;5007066;28;20213;-26
2022/01/26 00:09:57;;;;;;;99.53;41.67;;;5.50;99.90;;;;;;5006326;28;20601;-26
2022/01/26 00:12:24;;;;;;;104.87;44.33;;;5.50;99.90;;;;;;5007646;28;20252;-26
2022/01/26 00:14:52;;;;;;;107.33;44.00;;;5.50;99.90;;;;;;5007886;28;20700;-26
2022/01/26 00:17:19;;;;;;;101.17;43.90;;;5.50;99.90;;;;;;5007692;28;20321;-27
2022/01/26 00:20:02;;;;;;;103.67;43.47;;;5.50;99.90;;;;;;5007327;28;20283;-26
2022/01/26 00:22:53;;;;;;;102.47;45.13;;;5.50;99.90;;;;;;4987447;28;20305;-27
2022/01/26 00:38:40;;;;;;;117.43;46.37;;;5.50;99.90;;;;;;5011112;28;20290;-26
2022/01/26 00:41:15;;;;;;;122.27;48.50;;;5.50;99.90;;;;;;5010629;28;20205;-26
2022/01/26 00:43:49;;;;;;;105.13;45.00;;;5.50;99.90;;;;;;5010856;28;20520;-26
2022/01/26 00:46:18;;;;;;;114.87;45.07;;;5.50;99.90;;;;;;5025958;28;20197;-26
2022/01/26 00:48:46;;;;;;;115.60;45.73;;;5.50;99.90;;;;;;5042695;28;20209;-26
2022/01/26 00:51:22;;;;;;;111.60;45.37;;;5.50;99.90;;;;;;5009783;28;20688;-26
2022/01/26 00:54:10;;;;;;;112.57;45.07;;;5.50;99.90;;;;;;5010913;28;20217;-26
2022/01/26 00:56:39;;;;;;;110.83;45.20;;;5.50;99.90;;;;;;5010697;28;20193;-26
2022/01/26 00:59:06;;;;;;;109.43;44.97;;;5.50;99.90;;;;;;5010326;28;20213;-27
2022/01/26 01:01:33;;;;;;;109.60;44.90;;;5.50;99.90;;;;;;5010659;28;20194;-26
2022/01/26 01:04:01;;;;;;;120.30;49.23;;;5.50;99.90;;;;;;5009165;28;20276;-26
2022/01/26 01:06:36;;;;;;;106.30;44.87;;;5.50;99.90;;;;;;5008320;28;20328;-26
2022/01/26 01:09:03;;;;;;;107.10;45.37;;;5.50;99.90;;;;;;5010667;28;20212;-26
2022/01/26 01:11:31;;;;;;;112.80;46.70;;;5.50;99.90;;;;;;5010398;28;20209;-27
2022/01/26 01:14:03;;;;;;;111.90;46.97;;;5.50;99.90;;;;;;5010124;28;20288;-26
2022/01/26 01:16:33;;;;;;;108.93;46.67;;;5.50;99.90;;;;;;5009994;28;20202;-26
2022/01/26 01:19:08;;;;;;;113.57;47.00;;;5.50;99.90;;;;;;5010318;28;20304;-26
2022/01/26 01:25:20;;;;;;;117.50;47.70;;;5.50;99.90;;;;;;5026939;28;20761;-26
2022/01/26 01:27:54;;;;;;;117.37;48.80;;;5.50;99.90;;;;;;5026745;28;20706;-26
2022/01/26 01:30:35;;;;;;;118.23;48.37;;;5.50;99.90;;;;;;4997302;28;20230;-26
2022/01/26 01:33:08;;;;;;;115.10;47.30;;;5.50;99.90;;;;;;5004871;28;20202;-26
2022/01/26 01:35:40;;;;;;;116.43;49.83;;;5.50;99.90;;;;;;5008139;28;20233;-26
2022/01/26 01:38:14;;;;;;;119.23;50.70;;;5.50;99.90;;;;;;5024913;28;20216;-27
2022/01/26 01:40:46;;;;;;;115.80;48.47;;;5.50;99.90;;;;;;5009497;28;20208;-26
2022/01/26 01:43:15;;;;;;;116.60;48.03;;;5.50;99.90;;;;;;5009642;28;20228;-26
2022/01/26 01:45:49;;;;;;;117.40;49.03;;;5.50;99.90;;;;;;5009434;28;20210;-26
2022/01/26 01:48:22;;;;;;;108.83;48.13;;;5.50;99.90;;;;;;5009957;28;20214;-26
2022/01/26 01:50:51;;;;;;;111.67;48.70;;;5.50;99.90;;;;;;4989246;28;20241;-26
2022/01/26 01:53:19;;;;;;;115.60;47.30;;;5.50;99.90;;;;;;4990633;28;20202;-26
2022/01/26 01:55:49;;;;;;;116.73;49.23;;;5.50;99.90;;;;;;5005053;28;20669;-26
2022/01/26 01:58:18;;;;;;;115.70;49.10;;;5.50;99.90;;;;;;4993916;28;20210;-26
2022/01/26 02:00:46;;;;;;;119.73;49.27;;;5.50;99.90;;;;;;5009611;28;20706;-26
2022/01/26 02:03:17;;;;;;;123.47;49.23;;;5.50;99.90;;;;;;5024358;28;20217;-26
2022/01/26 02:05:44;;;;;;;115.13;48.03;;;5.50;99.90;;;;;;5008432;28;20214;-26
2022/01/26 02:08:11;;;;;;;111.47;48.47;;;5.40;99.90;;;;;;5009270;28;20205;-26
2022/01/26 02:10:39;;;;;;;124.60;48.80;;;5.50;99.90;;;;;;5008993;28;20221;-27
2022/01/26 02:13:15;;;;;;;119.53;49.03;;;5.50;99.90;;;;;;5023967;28;20202;-34
2022/01/26 02:16:10;;;;;;;119.43;50.40;;;5.50;99.90;;;;;;5009260;28;20201;-26
2022/01/26 02:51:58;;;;;;;122.33;51.30;;;5.30;99.90;;;;;;5007661;28;20621;-26
2022/01/26 03:00:14;;;;;;;122.50;53.23;;;5.30;99.90;;;;;;5008678;28;20212;-26
2022/01/26 03:05:19;;;;;;;127.97;54.17;;;5.30;99.90;;;;;;5008291;28;20205;-27
2022/01/26 03:07:54;;;;;;;117.60;50.97;;;5.30;99.90;;;;;;5008078;28;20213;-26
2022/01/26 03:10:34;;;;;;;127.43;52.63;;;5.30;99.90;;;;;;5039682;28;20225;-26
2022/01/26 03:13:08;;;;;;;123.07;51.30;;;5.20;99.90;;;;;;5008044;28;20292;-26
2022/01/26 03:15:41;;;;;;;125.87;53.37;;;5.20;99.90;;;;;;5006876;28;20352;-27
2022/01/26 03:20:40;;;;;;;113.33;49.30;;;5.20;99.90;;;;;;4991050;28;20210;-27
2022/01/26 03:34:14;;;;;;;112.90;48.17;;;5.20;99.90;;;;;;5008413;28;20201;-26
2022/01/26 03:39:15;;;;;;;109.77;48.90;;;5.20;99.90;;;;;;5008210;28;20205;-26
2022/01/26 03:42:05;;;;;;;115.20;50.93;;;5.20;99.90;;;;;;5008003;28;20212;-26
2022/01/26 03:44:36;;;;;;;111.87;49.03;;;5.20;99.90;;;;;;5008417;28;20201;-26
2022/01/26 03:47:08;;;;;;;113.80;49.07;;;5.20;99.90;;;;;;5007984;28;20698;-26
2022/01/26 03:49:36;;;;;;;115.13;49.53;;;5.20;99.90;;;;;;5008171;28;20692;-26
2022/01/26 03:52:10;;;;;;;119.87;49.50;;;5.20;99.90;;;;;;5005544;28;20672;-26
2022/01/26 03:54:38;;;;;;;115.57;49.30;;;5.20;99.90;;;;;;5008148;28;20260;-27
2022/01/26 03:57:05;;;;;;;114.17;48.23;;;5.20;99.90;;;;;;5007992;28;20201;-26
2022/01/26 03:59:33;;;;;;;115.03;48.97;;;5.20;99.90;;;;;;5008083;28;20209;-27
2022/01/26 04:02:02;;;;;;;113.53;48.50;;;5.30;99.90;;;;;;5007668;28;20233;-26
2022/01/26 04:04:33;;;;;;;114.87;48.80;;;5.30;99.90;;;;;;5011860;28;20211;-26
2022/01/26 04:07:02;;;;;;;117.73;48.77;;;5.30;99.90;;;;;;5025672;28;20715;-26
2022/01/26 04:09:31;;;;;;;108.63;47.57;;;5.30;99.90;;;;;;5042328;28;20628;-26
2022/01/26 04:12:01;;;;;;;108.70;46.67;;;5.30;99.90;;;;;;5011013;28;20251;-26
2022/01/26 04:14:32;;;;;;;110.57;49.03;;;5.30;99.90;;;;;;5026657;28;20292;-26
2022/01/26 04:16:59;;;;;;;117.40;49.30;;;5.30;99.90;;;;;;5011463;28;20403;-26
2022/01/26 04:19:32;;;;;;;111.37;47.80;;;5.30;99.90;;;;;;5004424;28;20564;-26
2022/01/26 04:22:13;;;;;;;116.27;49.60;;;5.30;99.90;;;;;;4995703;28;20221;-24
2022/01/26 04:24:50;;;;;;;106.17;46.60;;;5.30;99.90;;;;;;5011441;28;20216;-25
2022/01/26 04:27:24;;;;;;;111.23;45.73;;;5.30;99.90;;;;;;5011085;28;20646;-25
2022/01/26 04:29:51;;;;;;;109.83;47.60;;;5.30;99.90;;;;;;5011433;28;20724;-25
2022/01/26 04:32:19;;;;;;;109.33;47.10;;;5.30;99.90;;;;;;5042406;28;20232;-26
2022/01/26 04:34:49;;;;;;;117.60;49.20;;;5.30;99.90;;;;;;5011320;28;20233;-26
2022/01/26 04:40:03;;;;;;;112.30;47.37;;;5.30;99.90;;;;;;5011147;28;20224;-26
2022/01/26 04:45:07;;;;;;;112.00;47.53;;;5.30;99.90;;;;;;5011039;28;20305;-27
2022/01/26 04:47:34;;;;;;;115.30;48.00;;;5.30;99.90;;;;;;5010870;28;20208;-26
2022/01/26 04:50:05;;;;;;;117.40;47.17;;;5.30;99.90;;;;;;5010784;28;20292;-26
2022/01/26 04:52:34;;;;;;;111.43;47.83;;;5.30;99.90;;;;;;5010327;28;20224;-26
2022/01/26 04:55:05;;;;;;;112.60;47.13;;;5.30;99.90;;;;;;5011346;28;20194;-26
2022/01/26 04:57:34;;;;;;;116.87;47.23;;;5.30;99.90;;;;;;5009833;28;20218;-26
2022/01/26 05:00:06;;;;;;;114.17;46.90;;;5.30;99.90;;;;;;5010779;28;20574;-26
2022/01/26 05:02:34;;;;;;;112.47;46.53;;;5.30;99.90;;;;;;5025611;28;20573;-26
2022/01/26 05:05:01;;;;;;;108.83;43.97;;;5.30;99.90;;;;;;5010653;28;20553;-26
2022/01/26 05:07:29;;;;;;;116.47;46.83;;;5.30;99.90;;;;;;5010097;28;20201;-26
2022/01/26 05:09:56;;;;;;;109.27;43.73;;;5.30;99.90;;;;;;5025501;28;20204;-26
2022/01/26 05:12:24;;;;;;;119.40;45.80;;;5.30;99.90;;;;;;5010060;28;20221;-26
2022/01/26 05:14:51;;;;;;;113.00;45.47;;;5.30;99.90;;;;;;5008114;28;20241;-26
2022/01/26 05:17:20;;;;;;;105.57;43.50;;;5.30;99.90;;;;;;5009986;28;20672;-26
2022/01/26 05:19:56;;;;;;;116.17;45.60;;;5.30;99.90;;;;;;4990871;28;20214;-26
2022/01/26 05:22:27;;;;;;;119.00;44.40;;;5.30;99.90;;;;;;4989611;28;20233;-26
2022/01/26 05:24:56;;;;;;;109.77;44.63;;;5.30;99.90;;;;;;5005379;28;20248;-26
2022/01/26 05:27:26;;;;;;;108.30;42.87;;;5.20;99.90;;;;;;4990392;28;20237;-27
2022/01/26 05:29:56;;;;;;;108.63;42.17;;;5.20;99.90;;;;;;5010535;28;20210;-26
2022/01/26 05:32:28;;;;;;;106.47;41.63;;;5.20;99.90;;;;;;5008050;28;20236;-26
2022/01/26 05:34:55;;;;;;;109.23;41.13;;;5.20;99.90;;;;;;5024962;28;20301;-27
2022/01/26 05:37:23;;;;;;;100.77;39.90;;;5.20;99.90;;;;;;5009120;28;20201;-26
2022/01/26 05:39:52;;;;;;;100.93;38.83;;;5.20;99.90;;;;;;5010164;28;20198;-26
2022/01/26 05:42:19;;;;;;;106.87;40.53;;;5.20;99.90;;;;;;5009520;28;20933;-26
2022/01/26 05:44:49;;;;;;;108.43;38.93;;;5.20;99.90;;;;;;5010106;28;20311;-26
2022/01/26 05:47:19;;;;;;;103.97;39.83;;;5.20;99.90;;;;;;5009374;28;20210;-26
2022/01/26 05:49:47;;;;;;;105.50;39.47;;;5.20;99.90;;;;;;5009902;28;20292;-26
2022/01/26 05:52:17;;;;;;;102.97;37.43;;;5.20;99.90;;;;;;5020654;28;20348;-26
2022/01/26 05:54:44;;;;;;;100.20;38.90;;;5.20;99.90;;;;;;4990478;28;20681;-26
2022/01/26 05:57:14;;;;;;;98.57;38.40;;;5.20;99.90;;;;;;5004353;28;20784;-31
2022/01/26 05:59:45;;;;;;;98.13;37.60;;;5.20;99.90;;;;;;4992344;28;20775;-26
2022/01/26 06:02:13;;;;;;;95.13;35.90;;;5.20;99.90;;;;;;5004499;28;20209;-26
2022/01/26 06:04:40;;;;;;;103.47;38.67;;;5.20;99.90;;;;;;5004857;28;20240;-26
2022/01/26 06:07:07;;;;;;;95.07;36.73;;;5.20;99.90;;;;;;5006182;28;20202;-26
2022/01/26 06:09:34;;;;;;;94.47;38.40;;;5.20;99.90;;;;;;5005989;28;20717;-26
2022/01/26 06:12:04;;;;;;;99.77;38.87;;;5.20;99.90;;;;;;5005194;28;20587;-26
2022/01/26 06:14:35;;;;;;;93.83;37.30;;;5.20;99.90;;;;;;5004241;28;20206;-26
2022/01/26 06:17:05;;;;;;;90.60;36.43;;;5.20;99.90;;;;;;5004210;28;20213;-26
2022/01/26 06:19:32;;;;;;;90.03;34.57;;;5.20;99.90;;;;;;5007121;28;20198;-27
2022/01/26 06:22:02;;;;;;;100.20;37.90;;;5.20;99.90;;;;;;5007635;28;20287;-28
2022/01/26 06:24:29;;;;;;;97.80;37.60;;;5.20;99.90;;;;;;5009189;28;20198;-26
2022/01/26 06:26:56;;;;;;;102.00;38.37;;;5.20;99.90;;;;;;5007365;28;20226;-26
2022/01/26 06:29:24;;;;;;;101.60;39.43;;;5.20;99.90;;;;;;5008306;28;20225;-26
2022/01/26 06:31:55;;;;;;;96.00;38.63;;;5.10;99.90;;;;;;5008808;28;20248;-26
2022/01/26 06:34:23;;;;;;;88.97;37.10;;;5.10;99.90;;;;;;5008912;28;20308;-26
2022/01/26 06:36:50;;;;;;;98.17;38.73;;;5.10;99.90;;;;;;5007836;28;20296;-26
2022/01/26 06:39:18;;;;;;;98.73;38.87;;;5.10;99.90;;;;;;5008670;28;20206;-26
2022/01/26 06:41:55;;;;;;;103.13;39.57;;;5.10;99.90;;;;;;5008225;28;20760;-26
2022/01/26 06:44:30;;;;;;;99.97;40.00;;;5.10;99.90;;;;;;4996935;28;20271;-26
2022/01/26 06:49:32;;;;;;;93.23;37.17;;;5.10;99.90;;;;;;5008301;28;20205;-27
2022/01/26 06:51:59;;;;;;;96.03;38.60;;;5.10;99.90;;;;;;5005481;28;20660;-26
2022/01/26 06:54:29;;;;;;;98.07;38.97;;;5.10;99.90;;;;;;5023490;28;20213;-26
2022/01/26 06:56:58;;;;;;;98.43;38.93;;;5.10;99.90;;;;;;5007947;28;20288;-26
2022/01/26 06:59:28;;;;;;;101.60;39.53;;;5.10;99.90;;;;;;5007875;28;20739;-27
2022/01/26 07:01:55;;;;;;;90.13;37.80;;;5.10;99.90;;;;;;5005500;28;20644;-26
2022/01/26 07:04:22;;;;;;;94.50;38.70;;;5.10;99.90;;;;;;5012476;28;20201;-27
2022/01/26 07:06:50;;;;;;;94.27;38.93;;;5.10;99.90;;;;;;5012177;28;20690;-26
2022/01/26 07:09:22;;;;;;;90.83;39.30;;;5.10;99.90;;;;;;5010793;28;20213;-26
2022/01/26 07:11:49;;;;;;;94.07;38.77;;;5.10;99.90;;;;;;5007555;28;20218;-26
2022/01/26 07:20:26;;;;;;;92.73;39.70;;;5.00;99.90;;;;;;4988979;28;20312;-26
2022/01/26 07:22:46;;;;;;;96.50;39.17;;;5.00;99.90;;;;;;5012459;28;20309;-26
2022/01/26 07:25:14;;;;;;;102.97;40.93;;;5.00;99.90;;;;;;5019314;28;20619;-26
2022/01/26 07:27:43;;;;;;;91.10;38.00;;;5.00;99.90;;;;;;5009944;28;20216;-27
2022/01/26 07:30:13;;;;;;;96.10;39.93;;;5.10;99.90;;;;;;5006508;28;20320;-26
2022/01/26 07:32:41;;;;;;;103.03;39.93;;;5.10;99.90;;;;;;5006492;28;20316;-26
2022/01/26 07:35:09;;;;;;;88.43;38.77;;;5.10;99.90;;;;;;5007432;28;20297;-26
2022/01/26 07:37:36;;;;;;;87.80;37.90;;;5.00;99.90;;;;;;5007776;28;20611;-26
2022/01/26 07:40:10;;;;;;;89.30;37.93;;;5.10;99.90;;;;;;5011895;28;20276;-27
2022/01/26 07:42:37;;;;;;;91.30;37.83;;;5.10;99.90;;;;;;5010233;28;20735;-26
2022/01/26 07:45:10;;;;;;;90.13;38.70;;;5.00;99.90;;;;;;5011950;28;20213;-26
2022/01/26 07:47:38;;;;;;;92.67;39.77;;;5.00;99.90;;;;;;5011572;28;20205;-26
2022/01/26 07:50:10;;;;;;;90.83;37.63;;;5.00;99.90;;;;;;5010142;28;20442;-26
2022/01/26 07:52:40;;;;;;;93.90;38.83;;;5.00;99.90;;;;;;5000954;28;20809;-26
2022/01/26 07:55:09;;;;;;;92.93;38.47;;;5.00;99.90;;;;;;5010252;28;20197;-26
2022/01/26 07:57:39;;;;;;;92.13;39.80;;;5.00;99.90;;;;;;5011419;28;20208;-26
2022/01/26 08:00:07;;;;;;;90.97;38.20;;;5.10;99.90;;;;;;5011901;28;20197;-26
2022/01/26 08:02:34;;;;;;;91.27;36.90;;;5.10;99.90;;;;;;5011983;28;20289;-27
2022/01/26 08:05:02;;;;;;;85.67;37.60;;;5.10;99.90;;;;;;5010975;28;20205;-26
2022/01/26 08:07:29;;;;;;;91.73;37.60;;;5.10;99.90;;;;;;5010567;28;20572;-26
2022/01/26 08:09:56;;;;;;;91.80;39.90;;;5.10;99.90;;;;;;5011729;28;20296;-26
2022/01/26 08:12:28;;;;;;;88.73;38.33;;;5.10;99.90;;;;;;5011140;28;20229;-26
2022/01/26 08:15:15;;;;;;;86.73;37.67;;;5.10;99.90;;;;;;5011180;28;20194;-26
2022/01/26 08:17:52;;;;;;;90.30;38.07;;;5.10;99.90;;;;;;5011377;28;20597;-26
2022/01/26 08:20:23;;;;;;;88.50;38.53;;;5.10;99.90;;;;;;5009697;28;20198;-25
2022/01/26 08:22:56;;;;;;;91.30;39.17;;;5.10;99.90;;;;;;5011144;28;20267;-25
2022/01/26 08:25:24;;;;;;;89.83;38.60;;;5.10;99.90;;;;;;5012310;28;20301;-25
2022/01/26 08:28:05;;;;;;;90.27;39.17;;;5.10;99.90;;;;;;5010989;28;20591;-25
2022/01/26 08:30:36;;;;;;;92.13;38.07;;;5.10;99.90;;;;;;4992229;28;20676;-25
2022/01/26 08:33:05;;;;;;;97.03;39.43;;;5.10;99.90;;;;;;5019467;28;20810;-25
2022/01/26 08:35:38;;;;;;;89.37;38.47;;;5.10;99.90;;;;;;5010475;28;20240;-25
2022/01/26 08:38:10;;;;;;;93.20;38.33;;;5.10;99.90;;;;;;5009879;28;20206;-25
2022/01/26 08:40:40;;;;;;;89.17;38.87;;;5.10;99.90;;;;;;5010760;28;20209;-25
2022/01/26 08:43:10;;;;;;;91.80;39.80;;;5.10;99.90;;;;;;5008417;28;20205;-25
2022/01/26 08:45:37;;;;;;;96.27;40.70;;;5.20;99.90;;;;;;5008297;28;20205;-25
2022/01/26 08:48:05;;;;;;;91.27;41.20;;;5.20;99.90;;;;;;5012323;28;20556;-25
2022/01/26 08:50:33;;;;;;;103.07;42.33;;;5.20;99.90;;;;;;5012204;28;20241;-26
2022/01/26 08:53:03;;;;;;;101.43;42.10;;;5.20;99.90;;;;;;5017602;28;20275;-26
2022/01/26 08:55:31;;;;;;;92.37;39.30;;;5.20;99.90;;;;;;5011889;28;20276;-26
2022/01/26 08:57:59;;;;;;;98.07;41.33;;;5.20;99.90;;;;;;5025373;28;20225;-26
2022/01/26 09:00:28;;;;;;;95.97;41.67;;;5.20;99.90;;;;;;5012993;28;20273;-26
2022/01/26 09:02:57;;;;;;;91.37;38.70;;;5.20;99.90;;;;;;5011305;28;20216;-26
2022/01/26 09:05:29;;;;;;;94.50;40.03;;;5.20;99.90;;;;;;5025352;28;20630;-26
2022/01/26 09:07:58;;;;;;;98.80;42.27;;;5.20;99.90;;;;;;5029963;28;20283;-26
2022/01/26 09:10:29;;;;;;;100.80;41.80;;;5.30;99.90;;;;;;5027625;28;20576;-26
2022/01/26 09:12:56;;;;;;;100.37;42.10;;;5.30;99.90;;;;;;5009880;28;20221;-26
2022/01/26 09:15:28;;;;;;;96.50;42.30;;;5.30;99.90;;;;;;5012571;28;20472;-26
2022/01/26 09:18:03;;;;;;;94.90;42.93;;;5.30;99.90;;;;;;5010083;28;20327;-26
2022/01/26 09:20:38;;;;;;;102.90;41.43;;;5.30;99.90;;;;;;5012771;28;20315;-26
2022/01/26 09:23:10;;;;;;;100.47;42.50;;;5.30;99.90;;;;;;5011370;28;20600;-26
2022/01/26 09:25:37;;;;;;;99.27;41.07;;;5.30;99.90;;;;;;5009939;28;20688;-26
2022/01/26 09:28:04;;;;;;;95.07;42.47;;;5.30;99.90;;;;;;5008189;28;20198;-25
2022/01/26 09:30:32;;;;;;;98.47;42.80;;;5.40;99.90;;;;;;5010084;28;20209;-25
2022/01/26 09:33:02;;;;;;;87.23;41.47;;;5.40;99.90;;;;;;5008417;28;20352;-25
2022/01/26 09:35:34;;;;;;;101.13;42.43;;;5.40;99.90;;;;;;5008151;28;20197;-24
2022/01/26 09:38:04;;;;;;;96.30;40.87;;;5.40;99.90;;;;;;5007513;28;20603;-25
2022/01/26 09:40:31;;;;;;;94.27;40.90;;;5.40;99.90;;;;;;5009757;28;20584;-24
2022/01/26 09:42:59;;;;;;;90.83;42.23;;;5.40;99.90;;;;;;5009923;28;20245;-25
2022/01/26 09:45:29;;;;;;;91.80;39.50;;;5.50;99.90;;;;;;5009289;28;20989;-25
2022/01/26 09:47:56;;;;;;;84.87;39.90;;;5.50;99.90;;;;;;4998730;28;20218;-25
2022/01/26 09:50:47;;;;;;;85.83;39.87;;;5.50;99.90;;;;;;4994465;28;20668;-25
2022/01/26 09:53:33;;;;;;;87.70;40.37;;;5.50;99.90;;;;;;5009165;28;20597;-24
2022/01/26 09:56:00;;;;;;;81.60;39.63;;;5.50;99.90;;;;;;5007550;28;20198;-25
2022/01/26 09:58:28;;;;;;;84.97;39.47;;;5.60;99.90;;;;;;5007650;28;20213;-24
2022/01/26 10:01:01;;;;;;;85.77;40.37;;;5.60;99.90;;;;;;5008407;28;20668;-25
2022/01/26 10:03:34;;;;;;;86.93;40.67;;;5.60;99.90;;;;;;5009277;28;20658;-25
2022/01/26 10:06:03;;;;;;;78.03;38.37;;;5.60;99.90;;;;;;5037520;28;20656;-25
2022/01/26 10:19:07;;;;;;;76.87;38.23;;;5.60;99.90;;;;;;5008853;28;20197;-25
2022/01/26 10:21:48;;;;;;;75.97;38.77;;;5.60;99.90;;;;;;5008538;28;20205;-25
2022/01/26 10:24:18;;;;;;;69.47;36.93;;;5.60;99.90;;;;;;5008711;28;20313;-24
2022/01/26 10:26:56;;;;;;;73.37;37.27;;;5.60;99.90;;;;;;5008067;28;20540;-25
2022/01/26 10:29:29;;;;;;;72.07;36.37;;;5.60;99.90;;;;;;5008774;28;20201;-25
2022/01/26 10:31:58;;;;;;;69.27;34.97;;;5.60;99.90;;;;;;5021510;28;20220;-25
2022/01/26 10:34:28;;;;;;;70.60;36.00;;;5.60;99.90;;;;;;5039290;28;20555;-24
2022/01/26 10:37:00;;;;;;;72.37;37.27;;;5.70;99.90;;;;;;5007490;28;20202;-24
2022/01/26 10:39:42;;;;;;;71.87;37.27;;;5.70;99.90;;;;;;5009071;28;20189;-24
2022/01/26 10:42:13;;;;;;;77.40;38.77;;;5.70;99.90;;;;;;5008430;28;20197;-25
2022/01/26 10:44:51;;;;;;;73.73;36.83;;;5.70;99.90;;;;;;5008819;28;20599;-25
2022/01/26 10:47:33;;;;;;;79.67;38.60;;;5.70;99.90;;;;;;5007867;28;20702;-24
2022/01/26 10:50:44;;;;;;;80.07;38.80;;;5.70;99.90;;;;;;5023707;28;20217;-25
2022/01/26 10:53:20;;;;;;;82.30;40.20;;;5.70;99.90;;;;;;5002110;28;20239;-24
2022/01/26 10:55:50;;;;;;;77.37;38.80;;;5.70;99.90;;;;;;5006021;28;20668;-24
2022/01/26 10:58:18;;;;;;;78.37;37.87;;;5.80;99.90;;;;;;5007869;28;20663;-25
2022/01/26 11:00:46;;;;;;;72.87;38.77;;;5.80;99.90;;;;;;5007724;28;20228;-25
2022/01/26 11:03:13;;;;;;;76.93;38.70;;;5.80;99.90;;;;;;5008555;28;20251;-24
2022/01/26 11:05:43;;;;;;;75.40;37.97;;;5.80;99.90;;;;;;5006337;28;20284;-25
2022/01/26 11:08:12;;;;;;;78.10;38.60;;;5.80;99.90;;;;;;5007624;28;20205;-25
2022/01/26 11:10:40;;;;;;;73.90;37.23;;;5.80;99.90;;;;;;5007983;28;20205;-25
2022/01/26 11:13:07;;;;;;;72.47;36.60;;;5.90;99.90;;;;;;5007028;28;20281;-24
2022/01/26 11:15:39;;;;;;;69.13;35.90;;;5.90;99.90;;;;;;5004703;28;20213;-24
2022/01/26 11:18:17;;;;;;;73.63;36.57;;;5.90;99.90;;;;;;5006107;28;20206;-25
2022/01/26 11:20:55;;;;;;;74.40;37.33;;;5.90;99.90;;;;;;5008477;28;20291;-25
2022/01/26 11:23:39;;;;;;;77.47;37.73;;;5.90;99.90;;;;;;5000946;28;20214;-25
2022/01/26 11:26:24;;;;;;;70.87;37.00;;;6.00;99.90;;;;;;5021711;28;20690;-24
2022/01/26 11:28:53;;;;;;;70.00;37.80;;;6.00;99.90;;;;;;5004230;28;20672;-25
2022/01/26 11:31:24;;;;;;;68.67;35.87;;;6.00;99.90;;;;;;5007720;28;20228;-25
2022/01/26 11:34:14;;;;;;;68.63;36.80;;;6.00;99.90;;;;;;5004679;28;20237;-25
2022/01/26 11:36:44;;;;;;;66.27;36.20;;;6.00;99.90;;;;;;4988522;28;20201;-25
2022/01/26 11:42:33;;;;;;;69.77;35.20;;;6.00;99.90;;;;;;5006449;28;20252;-25
2022/01/26 11:45:17;;;;;;;76.70;36.90;;;6.00;99.90;;;;;;5008024;28;20207;-25
2022/01/26 11:48:09;;;;;;;70.03;36.30;;;6.00;99.90;;;;;;5007158;28;20198;-24
2022/01/26 11:50:48;;;;;;;69.70;35.77;;;6.00;99.90;;;;;;5005508;28;20236;-24
2022/01/26 11:53:16;;;;;;;70.07;36.00;;;6.00;99.90;;;;;;5005902;28;20221;-25
2022/01/26 11:55:49;;;;;;;66.73;35.77;;;6.10;99.90;;;;;;5007187;28;20204;-25
2022/01/26 11:58:32;;;;;;;69.17;35.53;;;6.10;99.90;;;;;;5007669;28;20202;-24
2022/01/26 12:03:48;;;;;;;68.73;35.93;;;6.10;99.90;;;;;;5022015;28;20747;-25
2022/01/26 12:06:37;;;;;;;71.67;35.10;;;6.10;99.90;;;;;;5006499;28;20198;-25
2022/01/26 12:09:10;;;;;;;67.97;35.07;;;6.10;99.90;;;;;;5007911;28;20228;-25
2022/01/26 12:11:38;;;;;;;71.10;36.63;;;6.10;99.90;;;;;;5022216;28;20515;-25
2022/01/26 12:14:12;;;;;;;66.20;37.03;;;6.10;99.90;;;;;;5017416;28;20244;-25
2022/01/26 12:16:47;;;;;;;74.13;37.10;;;6.10;99.90;;;;;;5008281;28;20288;-25
2022/01/26 12:34:00;;;;;;;72.53;37.63;;;6.10;99.90;;;;;;5010557;28;20222;-26
2022/01/26 12:41:16;;;;;;;78.27;38.13;;;6.10;99.90;;;;;;5011068;28;20587;-26
2022/01/26 12:42:26;;;;;;;81.10;41.37;;;6.10;99.90;;;;;;5010421;28;20194;-26
2022/01/26 12:45:03;;;;;;;84.73;40.70;;;6.10;99.90;;;;;;5031424;28;20213;-26
2022/01/26 12:47:34;;;;;;;79.63;39.50;;;6.10;99.90;;;;;;5010486;28;20201;-26
2022/01/26 12:50:01;;;;;;;79.07;39.33;;;6.10;99.90;;;;;;5025517;28;20284;-27
2022/01/26 12:52:31;;;;;;;80.07;40.73;;;6.10;99.90;;;;;;5024034;28;20225;-27
2022/01/26 12:55:01;;;;;;;77.47;39.87;;;6.10;99.90;;;;;;5009131;28;20201;-27
2022/01/26 12:57:28;;;;;;;78.30;40.37;;;6.10;99.90;;;;;;5008531;28;20297;-26
2022/01/26 13:00:04;;;;;;;74.07;38.03;;;6.10;99.90;;;;;;5010854;28;20721;-26
2022/01/26 13:02:34;;;;;;;83.43;39.53;;;6.10;99.90;;;;;;5009826;28;20224;-26
2022/01/26 13:05:06;;;;;;;78.57;41.00;;;6.20;99.90;;;;;;5010850;28;20297;-27
2022/01/26 13:07:33;;;;;;;84.67;41.07;;;6.20;99.90;;;;;;4991529;28;20217;-26
2022/01/26 13:10:12;;;;;;;79.50;39.90;;;6.10;99.90;;;;;;5010620;28;20229;-26
2022/01/26 13:12:44;;;;;;;78.57;39.97;;;6.10;99.90;;;;;;5009127;28;20260;-27
2022/01/26 13:15:25;;;;;;;87.63;43.20;;;6.10;99.90;;;;;;5040638;28;20209;-27
2022/01/26 13:18:41;;;;;;;79.83;40.00;;;6.20;99.90;;;;;;5004430;28;20681;-27
2022/01/26 13:21:36;;;;;;;83.00;40.90;;;6.20;99.90;;;;;;5006468;28;20297;-27
2022/01/26 13:23:59;;;;;;;75.93;39.00;;;6.20;99.90;;;;;;5010411;28;20216;-27
2022/01/26 13:26:54;;;;;;;84.17;40.57;;;6.20;99.90;;;;;;5009653;28;20212;-27
2022/01/26 13:29:50;;;;;;;83.17;41.23;;;6.10;99.90;;;;;;5010579;28;20311;-27
2022/01/26 13:38:09;;;;;;;81.80;40.50;;;6.10;99.90;;;;;;5009357;28;20842;-26
2022/01/26 13:49:33;;;;;;;80.00;40.37;;;6.10;99.90;;;;;;5009981;28;20194;-26
2022/01/26 13:52:18;;;;;;;80.63;41.07;;;6.10;99.90;;;;;;5008579;28;20233;-26
2022/01/26 14:00:14;;;;;;;84.00;41.90;;;6.10;99.90;;;;;;5009744;28;20256;-26
2022/01/26 14:02:48;;;;;;;76.83;38.40;;;6.10;99.90;;;;;;5009430;28;20550;-26
2022/01/26 14:05:19;;;;;;;77.07;39.50;;;6.10;99.90;;;;;;5008751;28;20209;-26
2022/01/26 14:07:49;;;;;;;80.10;39.27;;;6.10;99.90;;;;;;5006860;28;20205;-26
2022/01/26 14:10:17;;;;;;;73.43;38.43;;;6.10;99.90;;;;;;5007989;28;20224;-26
2022/01/26 14:12:48;;;;;;;76.43;39.50;;;6.00;99.90;;;;;;5008239;28;20352;-26
2022/01/26 14:15:37;;;;;;;78.67;39.27;;;6.10;99.90;;;;;;5002771;28;20197;-26
2022/01/26 14:20:50;;;;;;;75.73;39.33;;;6.10;99.90;;;;;;5008625;28;20244;-26
2022/01/26 14:26:07;;;;;;;72.70;37.30;;;6.10;99.90;;;;;;5008783;28;20202;-25
2022/01/26 14:28:36;;;;;;;69.57;35.47;;;6.00;99.90;;;;;;5007750;28;20206;-25
2022/01/26 15:09:05;;;;;;;70.20;34.77;;;5.90;99.90;;;;;;5007706;28;20671;-25
2022/01/26 15:51:04;;;;;;;72.17;31.70;;;5.90;99.90;;;;;;5007483;28;20233;-25
2022/01/26 16:19:43;;;;;;;72.00;33.30;;;5.80;99.90;;;;;;5010616;28;20293;-26
2022/01/26 16:21:08;;;;;;;72.97;32.23;;;5.80;99.90;;;;;;5000435;28;20239;-25
2022/01/26 18:51:48;;;;;;;64.10;33.87;;;5.70;99.90;;;;;;5004581;28;20296;-25
2022/01/26 18:54:17;;;;;;;60.83;33.73;;;5.80;99.90;;;;;;5021565;28;20636;-25
2022/01/26 18:56:46;;;;;;;59.20;33.37;;;5.80;99.90;;;;;;5002047;28;20208;-25
2022/01/26 18:59:15;;;;;;;65.80;34.87;;;5.80;99.90;;;;;;5000452;28;20728;-25
2022/01/26 19:01:42;;;;;;;65.00;34.17;;;5.80;99.90;;;;;;5001040;28;20650;-25
2022/01/26 19:04:35;;;;;;;61.50;34.67;;;5.80;99.90;;;;;;5002955;28;20233;-25
2022/01/26 19:07:03;;;;;;;64.00;34.30;;;5.80;99.90;;;;;;5002884;28;20212;-25
2022/01/26 19:09:45;;;;;;;61.30;33.93;;;5.80;99.90;;;;;;5008419;28;20251;-25
2022/01/26 19:12:15;;;;;;;63.43;35.40;;;5.80;99.90;;;;;;5006778;28;20213;-25
2022/01/26 19:14:54;;;;;;;61.57;34.17;;;5.80;99.90;;;;;;5006934;28;20724;-26
2022/01/26 19:17:30;;;;;;;60.60;34.10;;;5.80;99.90;;;;;;5005647;28;20256;-26
2022/01/26 19:20:56;;;;;;;60.73;34.10;;;5.80;99.90;;;;;;5006235;28;20308;-26
2022/01/26 19:25:46;;;;;;;56.50;32.13;;;5.90;99.90;;;;;;5005400;28;20213;-26
2022/01/26 19:52:14;;;;;;;52.87;30.63;;;5.90;99.90;;;;;;5002876;28;20324;-26
2022/01/26 19:54:51;;;;;;;54.20;31.83;;;6.00;99.90;;;;;;5013074;28;20244;-26
2022/01/26 19:57:24;;;;;;;51.27;30.37;;;6.00;99.90;;;;;;5009963;28;20304;-26
2022/01/26 19:59:51;;;;;;;50.47;29.67;;;6.00;99.90;;;;;;5014984;28;20602;-26
2022/01/26 20:02:19;;;;;;;52.53;31.33;;;6.00;99.90;;;;;;5022262;28;20205;-25
2022/01/26 20:04:49;;;;;;;54.13;31.40;;;6.00;99.90;;;;;;5008583;28;20304;-24
2022/01/26 20:07:21;;;;;;;51.80;29.77;;;6.00;99.90;;;;;;5006808;28;20575;-25
2022/01/26 20:09:54;;;;;;;53.63;30.73;;;6.00;99.90;;;;;;5006772;28;20202;-25